Time;durP1;ratioP1;P1;durP2;ratioP2;P2;SDS_P1;SDS_P2;PMS_P1;PMS_P2;Temp;Humidity;BMP_temperature;BMP_pressure;BME280_temperature;BME280_humidity;BME280_pressure;Samples;Min_cycle;Max_cycle;Signal;HPM_P1;HPM_P2
2021/11/22 00:00:24;;;;;;;4.57;3.10;;;;;;;;;;5052172;28;20218;-77
2021/11/22 00:02:52;;;;;;;4.75;2.60;;;;;;;;;;5054336;28;20233;-77
2021/11/22 00:05:20;;;;;;;3.47;2.10;;;;;;;;;;5052074;28;20198;-77
2021/11/22 00:07:48;;;;;;;4.20;2.40;;;;;;;;;;5059164;28;20201;-77
2021/11/22 00:10:15;;;;;;;3.33;3.03;;;;;;;;;;5051121;28;20198;-76
2021/11/22 00:12:42;;;;;;;5.93;2.30;;;;;;;;;;5059995;28;20198;-77
2021/11/22 00:15:11;;;;;;;4.95;2.83;;;;;;;;;;5069124;28;20202;-76
2021/11/22 00:17:38;;;;;;;3.05;1.80;;;;;;;;;;5056418;28;20234;-76
2021/11/22 00:20:08;;;;;;;3.30;2.40;;;;;;;;;;5060913;28;20668;-77
2021/11/22 00:22:36;;;;;;;3.50;2.20;;;;;;;;;;5058387;28;20194;-76
2021/11/22 00:25:04;;;;;;;3.40;1.80;;;;;;;;;;5052581;28;20202;-76
2021/11/22 00:27:31;;;;;;;3.80;2.78;;;;;;;;;;5062064;28;20191;-77
2021/11/22 00:29:59;;;;;;;6.55;2.42;;;;;;;;;;5052976;28;20653;-76
2021/11/22 00:32:26;;;;;;;1.90;1.70;;;;;;;;;;5056772;28;20739;-76
2021/11/22 00:34:55;;;;;;;2.10;1.90;;;;;;;;;;5055226;28;20199;-76
2021/11/22 00:37:25;;;;;;;3.75;2.10;;;;;;;;;;5062413;28;20217;-76
2021/11/22 00:39:53;;;;;;;4.97;3.15;;;;;;;;;;5060094;28;20642;-76
2021/11/22 00:42:20;;;;;;;3.33;2.22;;;;;;;;;;5056981;28;20578;-76
2021/11/22 00:44:47;;;;;;;4.80;2.80;;;;;;;;;;5066246;28;20654;-76
2021/11/22 00:47:14;;;;;;;6.18;2.53;;;;;;;;;;5054906;28;20199;-77
2021/11/22 00:49:41;;;;;;;3.80;2.30;;;;;;;;;;5061391;28;20670;-76
2021/11/22 00:52:09;;;;;;;4.22;2.35;;;;;;;;;;5067370;28;20208;-75
2021/11/22 00:54:36;;;;;;;3.47;2.60;;;;;;;;;;5064563;28;20210;-76
2021/11/22 00:57:05;;;;;;;4.00;2.42;;;;;;;;;;5056627;28;20214;-76
2021/11/22 00:59:32;;;;;;;6.07;2.67;;;;;;;;;;5061882;28;20218;-76
2021/11/22 01:01:59;;;;;;;2.45;1.95;;;;;;;;;;5068555;28;20680;-77
2021/11/22 01:04:26;;;;;;;4.18;2.15;;;;;;;;;;5056201;28;20209;-76
2021/11/22 01:06:53;;;;;;;3.33;2.20;;;;;;;;;;5057584;28;20260;-76
2021/11/22 01:09:21;;;;;;;6.45;3.30;;;;;;;;;;5067717;28;20573;-77
2021/11/22 01:11:48;;;;;;;4.80;2.88;;;;;;;;;;5061365;28;20199;-77
2021/11/22 01:14:16;;;;;;;3.40;3.10;;;;;;;;;;5064345;28;20654;-77
2021/11/22 01:16:43;;;;;;;3.40;3.10;;;;;;;;;;5066738;28;20708;-76
2021/11/22 01:19:11;;;;;;;7.53;2.58;;;;;;;;;;5055225;28;20206;-76
2021/11/22 01:21:38;;;;;;;4.03;3.35;;;;;;;;;;5064650;28;20207;-77
2021/11/22 01:24:05;;;;;;;3.47;2.63;;;;;;;;;;5061536;28;20202;-77
2021/11/22 01:26:32;;;;;;;5.50;3.65;;;;;;;;;;5055315;28;20561;-77
2021/11/22 01:28:59;;;;;;;4.95;3.45;;;;;;;;;;5055146;28;20206;-78
2021/11/22 01:31:28;;;;;;;5.57;3.63;;;;;;;;;;5061066;28;20195;-76
2021/11/22 01:33:55;;;;;;;3.33;3.03;;;;;;;;;;5055727;28;20195;-78
2021/11/22 01:36:22;;;;;;;3.25;2.95;;;;;;;;;;5064884;28;20222;-77
2021/11/22 01:38:49;;;;;;;6.22;3.40;;;;;;;;;;5062201;28;20195;-78
2021/11/22 01:41:16;;;;;;;7.50;4.43;;;;;;;;;;5063885;28;20201;-77
2021/11/22 01:43:44;;;;;;;6.18;4.10;;;;;;;;;;5067688;28;20198;-78
2021/11/22 01:46:16;;;;;;;5.30;4.30;;;;;;;;;;5066539;28;20578;-78
2021/11/22 01:48:45;;;;;;;8.52;4.20;;;;;;;;;;5066297;28;20779;-78
2021/11/22 01:51:12;;;;;;;3.90;3.50;;;;;;;;;;5057450;28;20218;-76
2021/11/22 01:53:39;;;;;;;3.40;3.10;;;;;;;;;;5059103;28;20203;-77
2021/11/22 01:56:06;;;;;;;6.53;3.83;;;;;;;;;;5065847;28;20657;-76
2021/11/22 01:58:33;;;;;;;6.32;4.20;;;;;;;;;;5073549;28;20648;-76
2021/11/22 02:01:01;;;;;;;4.38;3.70;;;;;;;;;;5066399;28;20207;-76
2021/11/22 02:03:28;;;;;;;7.47;3.90;;;;;;;;;;5059480;28;20664;-76
2021/11/22 02:05:56;;;;;;;4.97;4.07;;;;;;;;;;5067026;28;20656;-75
2021/11/22 02:08:24;;;;;;;4.72;4.15;;;;;;;;;;5064763;28;20547;-75
2021/11/22 02:10:51;;;;;;;4.32;3.92;;;;;;;;;;5053899;28;20199;-76
2021/11/22 02:13:18;;;;;;;4.50;4.10;;;;;;;;;;5060874;28;20224;-78
2021/11/22 02:15:46;;;;;;;3.60;3.20;;;;;;;;;;5062454;28;20198;-78
2021/11/22 02:18:13;;;;;;;6.53;4.50;;;;;;;;;;5055613;28;20273;-78
2021/11/22 02:20:42;;;;;;;4.57;4.07;;;;;;;;;;5064515;28;20661;-78
2021/11/22 02:23:10;;;;;;;5.72;3.90;;;;;;;;;;5053793;28;20649;-77
2021/11/22 02:25:39;;;;;;;5.50;4.75;;;;;;;;;;5061450;28;20203;-78
2021/11/22 02:28:07;;;;;;;8.73;4.32;;;;;;;;;;5053668;28;20202;-78
2021/11/22 02:30:37;;;;;;;4.78;4.03;;;;;;;;;;5067573;28;20206;-78
2021/11/22 02:33:06;;;;;;;5.20;4.25;;;;;;;;;;5058549;28;20293;-77
2021/11/22 02:35:35;;;;;;;4.30;3.53;;;;;;;;;;5061224;28;20191;-77
2021/11/22 02:38:04;;;;;;;6.03;4.65;;;;;;;;;;5052892;28;20218;-77
2021/11/22 02:40:31;;;;;;;5.60;4.93;;;;;;;;;;5055743;28;20642;-78
2021/11/22 02:42:58;;;;;;;4.18;3.88;;;;;;;;;;5057835;28;20669;-78
2021/11/22 02:45:25;;;;;;;6.30;3.90;;;;;;;;;;5061067;28;20213;-77
2021/11/22 02:47:53;;;;;;;7.78;3.92;;;;;;;;;;5055323;28;20206;-77
2021/11/22 02:50:20;;;;;;;4.10;3.70;;;;;;;;;;5055751;28;20190;-77
2021/11/22 02:52:49;;;;;;;5.90;4.63;;;;;;;;;;5052340;28;20653;-77
2021/11/22 02:55:18;;;;;;;6.00;4.30;;;;;;;;;;5057314;28;20197;-78
2021/11/22 02:57:45;;;;;;;4.03;3.63;;;;;;;;;;5052443;28;20724;-78
2021/11/22 03:00:14;;;;;;;4.47;3.97;;;;;;;;;;5060862;28;20224;-78
2021/11/22 03:02:41;;;;;;;5.28;4.07;;;;;;;;;;5052606;28;20632;-78
2021/11/22 03:05:09;;;;;;;4.30;3.90;;;;;;;;;;5052791;28;20195;-76
2021/11/22 03:07:36;;;;;;;4.20;3.72;;;;;;;;;;5063314;28;20676;-77
2021/11/22 03:10:05;;;;;;;4.57;4.18;;;;;;;;;;5058846;28;20203;-77
2021/11/22 03:12:34;;;;;;;3.90;3.60;;;;;;;;;;5072355;28;20202;-76
2021/11/22 03:15:01;;;;;;;5.43;4.35;;;;;;;;;;5056522;28;20195;-76
2021/11/22 03:17:28;;;;;;;6.03;3.70;;;;;;;;;;5052414;28;20225;-77
2021/11/22 03:19:55;;;;;;;4.22;3.88;;;;;;;;;;5060308;28;20207;-76
2021/11/22 03:22:22;;;;;;;4.30;3.85;;;;;;;;;;5057915;28;20194;-77
2021/11/22 03:24:49;;;;;;;5.30;4.20;;;;;;;;;;5054499;28;20195;-77
2021/11/22 03:27:16;;;;;;;4.03;3.60;;;;;;;;;;5060558;28;20673;-77
2021/11/22 03:29:45;;;;;;;4.90;4.40;;;;;;;;;;5063839;28;20205;-77
2021/11/22 03:32:12;;;;;;;4.43;4.00;;;;;;;;;;5061677;28;20198;-77
2021/11/22 03:34:39;;;;;;;3.97;3.55;;;;;;;;;;5053406;28;20206;-76
2021/11/22 03:37:07;;;;;;;5.30;3.97;;;;;;;;;;5057207;28;20312;-77
2021/11/22 03:39:35;;;;;;;8.57;4.00;;;;;;;;;;5053889;28;20202;-77
2021/11/22 03:42:05;;;;;;;4.43;4.13;;;;;;;;;;5057351;28;20255;-77
2021/11/22 03:44:33;;;;;;;5.05;4.40;;;;;;;;;;5055717;28;20298;-77
2021/11/22 03:47:01;;;;;;;4.50;4.10;;;;;;;;;;5061608;28;20194;-77
2021/11/22 03:49:29;;;;;;;3.88;3.58;;;;;;;;;;5054721;28;20285;-77
2021/11/22 03:51:56;;;;;;;4.20;3.80;;;;;;;;;;5051928;28;20210;-77
2021/11/22 03:54:23;;;;;;;4.47;3.42;;;;;;;;;;5057335;28;20201;-77
2021/11/22 03:56:50;;;;;;;4.70;3.35;;;;;;;;;;5070287;28;20222;-77
2021/11/22 03:59:17;;;;;;;4.53;3.40;;;;;;;;;;5064939;28;20218;-77
2021/11/22 04:01:44;;;;;;;3.38;2.72;;;;;;;;;;5052855;28;20681;-77
2021/11/22 04:04:12;;;;;;;4.22;2.92;;;;;;;;;;5061549;28;20649;-77
2021/11/22 04:06:39;;;;;;;3.30;3.10;;;;;;;;;;5064271;28;20567;-77
2021/11/22 04:09:06;;;;;;;4.07;3.65;;;;;;;;;;5067093;28;20605;-77
2021/11/22 04:11:34;;;;;;;4.43;4.13;;;;;;;;;;5051511;28;20292;-77
2021/11/22 04:14:01;;;;;;;3.53;3.17;;;;;;;;;;5061123;28;20201;-77
2021/11/22 04:16:28;;;;;;;4.13;3.00;;;;;;;;;;5055448;28;20654;-77
2021/11/22 04:18:55;;;;;;;4.82;4.43;;;;;;;;;;5055384;28;20746;-77
2021/11/22 04:21:24;;;;;;;3.20;2.88;;;;;;;;;;5050169;28;20191;-78
2021/11/22 04:23:51;;;;;;;2.95;2.72;;;;;;;;;;5064922;28;20761;-77
2021/11/22 04:26:19;;;;;;;3.60;3.30;;;;;;;;;;5051308;28;20673;-77
2021/11/22 04:28:46;;;;;;;3.63;3.17;;;;;;;;;;5055553;28;20198;-77
2021/11/22 04:31:13;;;;;;;3.60;2.55;;;;;;;;;;5060023;28;20685;-77
2021/11/22 04:33:40;;;;;;;3.85;3.55;;;;;;;;;;5063632;28;20198;-77
2021/11/22 04:36:08;;;;;;;4.38;3.15;;;;;;;;;;5067595;28;20213;-77
2021/11/22 04:38:37;;;;;;;2.80;2.60;;;;;;;;;;5059419;28;20226;-77
2021/11/22 04:41:04;;;;;;;3.28;2.90;;;;;;;;;;5068189;28;20612;-77
2021/11/22 04:43:31;;;;;;;3.67;3.38;;;;;;;;;;5066722;28;20191;-77
2021/11/22 04:45:58;;;;;;;3.42;3.00;;;;;;;;;;5054577;28;20203;-77
2021/11/22 04:48:25;;;;;;;3.03;2.83;;;;;;;;;;5058395;28;20210;-78
2021/11/22 04:50:53;;;;;;;3.63;3.10;;;;;;;;;;5058802;28;20247;-77
2021/11/22 04:53:20;;;;;;;3.53;2.58;;;;;;;;;;5053639;28;20540;-77
2021/11/22 04:55:48;;;;;;;3.63;3.08;;;;;;;;;;5053940;28;20562;-77
2021/11/22 04:58:15;;;;;;;2.60;2.40;;;;;;;;;;5053600;28;20240;-78
2021/11/22 05:00:42;;;;;;;2.58;2.38;;;;;;;;;;5063839;28;20218;-77
2021/11/22 05:03:11;;;;;;;3.55;3.25;;;;;;;;;;5068220;28;20217;-77
2021/11/22 05:05:38;;;;;;;3.30;3.00;;;;;;;;;;5063158;28;20282;-78
2021/11/22 05:08:07;;;;;;;3.20;2.53;;;;;;;;;;5052699;28;20205;-78
2021/11/22 05:10:35;;;;;;;2.95;2.75;;;;;;;;;;5049886;28;20213;-78
2021/11/22 05:13:05;;;;;;;2.75;2.55;;;;;;;;;;5056856;28;20213;-78
2021/11/22 05:15:32;;;;;;;4.32;3.97;;;;;;;;;;5056916;28;20283;-77
2021/11/22 05:17:59;;;;;;;2.78;2.53;;;;;;;;;;5059622;28;20708;-77
2021/11/22 05:20:28;;;;;;;3.85;3.55;;;;;;;;;;5069538;28;20553;-78
2021/11/22 05:22:55;;;;;;;3.50;3.20;;;;;;;;;;5064448;28;20225;-78
2021/11/22 05:25:22;;;;;;;3.83;3.38;;;;;;;;;;5052083;28;20202;-78
2021/11/22 05:27:49;;;;;;;4.20;3.80;;;;;;;;;;5054751;28;20195;-78
2021/11/22 05:30:18;;;;;;;3.20;2.90;;;;;;;;;;5062610;28;20198;-78
2021/11/22 05:32:47;;;;;;;4.88;4.50;;;;;;;;;;5057485;28;20198;-77
2021/11/22 05:35:14;;;;;;;3.63;3.33;;;;;;;;;;5060511;28;20194;-78
2021/11/22 05:37:41;;;;;;;3.85;3.55;;;;;;;;;;5063184;28;20222;-77
2021/11/22 05:40:09;;;;;;;5.22;4.65;;;;;;;;;;5062760;28;20684;-77
2021/11/22 05:42:36;;;;;;;3.65;3.35;;;;;;;;;;5057723;28;20202;-77
2021/11/22 05:45:03;;;;;;;4.05;3.70;;;;;;;;;;5054130;28;20203;-78
2021/11/22 05:47:32;;;;;;;3.80;3.42;;;;;;;;;;5062421;28;20202;-77
2021/11/22 05:50:04;;;;;;;3.65;3.35;;;;;;;;;;5059505;28;20213;-77
2021/11/22 05:52:32;;;;;;;3.50;3.20;;;;;;;;;;5070117;28;20195;-77
2021/11/22 05:54:59;;;;;;;4.18;3.85;;;;;;;;;;5055523;28;20573;-78
2021/11/22 05:57:26;;;;;;;4.38;3.97;;;;;;;;;;5062102;28;20203;-78
2021/11/22 05:59:54;;;;;;;5.75;3.90;;;;;;;;;;5053911;28;20225;-77
2021/11/22 06:02:21;;;;;;;4.63;3.42;;;;;;;;;;5061877;28;20202;-77
2021/11/22 06:04:49;;;;;;;4.15;3.85;;;;;;;;;;5067876;28;20280;-77
2021/11/22 06:07:16;;;;;;;4.93;3.58;;;;;;;;;;5069049;28;20202;-77
2021/11/22 06:09:43;;;;;;;3.65;3.35;;;;;;;;;;5063372;28;20195;-77
2021/11/22 06:12:11;;;;;;;3.70;3.40;;;;;;;;;;5063945;28;20218;-77
2021/11/22 06:14:38;;;;;;;4.43;4.03;;;;;;;;;;5069124;28;20206;-77
2021/11/22 06:17:05;;;;;;;4.40;3.97;;;;;;;;;;5065561;28;20198;-77
2021/11/22 06:19:32;;;;;;;3.95;3.72;;;;;;;;;;5065657;28;20221;-78
2021/11/22 06:22:00;;;;;;;3.63;3.33;;;;;;;;;;5057810;28;20191;-77
2021/11/22 06:24:27;;;;;;;4.55;4.15;;;;;;;;;;5054929;28;20205;-77
2021/11/22 06:26:56;;;;;;;3.83;3.53;;;;;;;;;;5060750;28;20226;-77
2021/11/22 06:29:23;;;;;;;3.50;3.20;;;;;;;;;;5054893;28;20246;-77
2021/11/22 06:31:51;;;;;;;4.60;4.20;;;;;;;;;;5062931;28;20210;-77
2021/11/22 06:34:18;;;;;;;3.78;3.42;;;;;;;;;;5056863;28;20203;-78
2021/11/22 06:36:45;;;;;;;3.38;3.08;;;;;;;;;;5062048;28;20206;-77
2021/11/22 06:39:14;;;;;;;4.75;4.35;;;;;;;;;;5064800;28;20222;-78
2021/11/22 06:41:41;;;;;;;3.90;3.50;;;;;;;;;;5061949;28;20198;-77
2021/11/22 06:44:08;;;;;;;3.28;3.08;;;;;;;;;;5065277;28;20194;-77
2021/11/22 06:46:35;;;;;;;3.10;2.88;;;;;;;;;;5069993;28;20198;-77
2021/11/22 06:49:02;;;;;;;3.65;3.40;;;;;;;;;;5057547;28;20191;-77
2021/11/22 06:51:29;;;;;;;3.95;3.55;;;;;;;;;;5055053;28;20186;-77
2021/11/22 06:53:56;;;;;;;4.00;3.70;;;;;;;;;;5056069;28;20199;-77
2021/11/22 06:56:25;;;;;;;3.92;3.15;;;;;;;;;;5065527;28;20195;-78
2021/11/22 06:58:52;;;;;;;4.43;3.60;;;;;;;;;;5053542;28;20245;-78
2021/11/22 07:01:19;;;;;;;5.43;3.28;;;;;;;;;;5057211;28;20191;-79
2021/11/22 07:03:47;;;;;;;3.65;3.35;;;;;;;;;;5061480;28;20289;-78
2021/11/22 07:06:14;;;;;;;3.90;3.60;;;;;;;;;;5056784;28;20658;-78
2021/11/22 07:08:41;;;;;;;3.90;3.50;;;;;;;;;;5058099;28;20316;-78
2021/11/22 07:11:08;;;;;;;4.20;3.42;;;;;;;;;;5062830;28;20206;-77
2021/11/22 07:13:36;;;;;;;3.30;2.75;;;;;;;;;;5070424;28;20684;-78
2021/11/22 07:16:04;;;;;;;3.92;3.63;;;;;;;;;;5066062;28;20191;-79
2021/11/22 07:18:31;;;;;;;3.85;3.45;;;;;;;;;;5061571;28;20223;-78
2021/11/22 07:20:59;;;;;;;3.45;3.15;;;;;;;;;;5063397;28;20669;-81
2021/11/22 07:23:26;;;;;;;3.40;3.08;;;;;;;;;;5060755;28;20209;-81
2021/11/22 07:25:54;;;;;;;3.53;3.33;;;;;;;;;;5058036;28;20199;-80
2021/11/22 07:28:21;;;;;;;4.40;4.00;;;;;;;;;;5054846;28;20201;-80
2021/11/22 07:30:50;;;;;;;4.65;4.22;;;;;;;;;;5057030;28;20202;-83
2021/11/22 07:33:18;;;;;;;3.72;3.42;;;;;;;;;;5069268;28;20201;-82
2021/11/22 07:35:45;;;;;;;3.38;3.15;;;;;;;;;;5066560;28;20205;-82
2021/11/22 07:38:12;;;;;;;5.10;4.00;;;;;;;;;;5061590;28;20225;-81
2021/11/22 07:40:39;;;;;;;3.40;3.20;;;;;;;;;;5063071;28;20206;-81
2021/11/22 07:43:07;;;;;;;3.35;3.05;;;;;;;;;;5061597;28;20251;-79
2021/11/22 07:45:34;;;;;;;5.47;3.50;;;;;;;;;;5053815;28;20199;-81
2021/11/22 07:48:03;;;;;;;4.22;3.83;;;;;;;;;;5056475;28;20673;-81
2021/11/22 07:50:31;;;;;;;4.82;4.32;;;;;;;;;;5065038;28;20649;-82
2021/11/22 07:52:58;;;;;;;4.47;4.07;;;;;;;;;;5054982;28;20566;-81
2021/11/22 07:55:26;;;;;;;4.43;3.80;;;;;;;;;;5058689;28;20840;-80
2021/11/22 07:57:54;;;;;;;4.13;3.72;;;;;;;;;;5052817;28;20395;-80
2021/11/22 08:00:22;;;;;;;4.22;3.83;;;;;;;;;;5054989;28;20684;-81
2021/11/22 08:02:49;;;;;;;3.80;3.50;;;;;;;;;;5053021;28;20199;-81
2021/11/22 08:05:18;;;;;;;3.85;3.53;;;;;;;;;;5051722;28;20199;-81
2021/11/22 08:07:45;;;;;;;4.15;3.85;;;;;;;;;;5053883;28;20238;-81
2021/11/22 08:10:26;;;;;;;4.30;3.70;;;;;;;;;;5052785;28;20197;-80
2021/11/22 08:12:54;;;;;;;4.47;3.88;;;;;;;;;;5050390;28;20851;-81
2021/11/22 08:15:21;;;;;;;5.00;4.63;;;;;;;;;;5065690;28;20558;-81
2021/11/22 08:17:49;;;;;;;4.85;4.45;;;;;;;;;;5055711;28;20195;-81
2021/11/22 08:20:18;;;;;;;6.90;4.95;;;;;;;;;;5056703;28;20221;-80
2021/11/22 08:22:47;;;;;;;4.35;3.97;;;;;;;;;;5053510;28;20665;-80
2021/11/22 08:25:14;;;;;;;4.10;3.38;;;;;;;;;;5053369;28;20540;-81
2021/11/22 08:27:42;;;;;;;9.32;3.65;;;;;;;;;;5062665;28;20569;-80
2021/11/22 08:30:10;;;;;;;4.25;3.85;;;;;;;;;;5059792;28;20273;-77
2021/11/22 08:32:38;;;;;;;4.60;4.25;;;;;;;;;;5055339;28;20649;-78
2021/11/22 08:35:05;;;;;;;5.68;4.00;;;;;;;;;;5062041;28;20206;-77
2021/11/22 08:37:34;;;;;;;4.40;4.00;;;;;;;;;;5058939;28;20194;-77
2021/11/22 08:40:01;;;;;;;4.63;4.13;;;;;;;;;;5064071;28;20218;-77
2021/11/22 08:42:28;;;;;;;4.18;3.88;;;;;;;;;;5060750;28;20190;-77
2021/11/22 08:44:56;;;;;;;4.93;4.40;;;;;;;;;;5055232;28;20201;-77
2021/11/22 08:47:23;;;;;;;4.05;3.75;;;;;;;;;;5065344;28;20251;-77
2021/11/22 08:49:50;;;;;;;3.55;3.25;;;;;;;;;;5061753;28;20198;-77
2021/11/22 08:52:18;;;;;;;5.45;4.03;;;;;;;;;;5051580;28;20207;-78
2021/11/22 08:54:46;;;;;;;3.45;3.15;;;;;;;;;;5050432;28;20207;-77
2021/11/22 08:57:14;;;;;;;4.78;3.10;;;;;;;;;;5056491;28;20209;-78
2021/11/22 08:59:41;;;;;;;3.63;3.15;;;;;;;;;;5058956;28;20617;-76
2021/11/22 09:02:08;;;;;;;2.85;2.63;;;;;;;;;;5054957;28;20692;-77
2021/11/22 09:04:35;;;;;;;4.72;4.07;;;;;;;;;;5054521;28;20206;-78
2021/11/22 09:07:02;;;;;;;3.80;3.42;;;;;;;;;;5060599;28;20206;-77
2021/11/22 09:09:29;;;;;;;2.55;2.35;;;;;;;;;;5064075;28;20230;-77
2021/11/22 09:11:58;;;;;;;3.67;3.15;;;;;;;;;;5057338;28;20666;-77
2021/11/22 09:14:25;;;;;;;3.67;3.28;;;;;;;;;;5062090;28;20562;-78
2021/11/22 09:16:52;;;;;;;3.33;3.13;;;;;;;;;;5061283;28;20211;-78
2021/11/22 09:19:19;;;;;;;4.05;3.05;;;;;;;;;;5065961;28;20241;-77
2021/11/22 09:21:46;;;;;;;3.53;3.22;;;;;;;;;;5062591;28;20685;-77
2021/11/22 09:24:13;;;;;;;5.45;3.50;;;;;;;;;;5062013;28;20259;-77
2021/11/22 09:26:40;;;;;;;3.50;3.20;;;;;;;;;;5060354;28;20198;-78
2021/11/22 09:29:09;;;;;;;5.10;3.63;;;;;;;;;;5059216;28;20223;-78
2021/11/22 09:31:36;;;;;;;5.30;4.05;;;;;;;;;;5062748;28;20197;-77
2021/11/22 09:34:03;;;;;;;4.90;4.20;;;;;;;;;;5061308;28;20198;-78
2021/11/22 09:36:30;;;;;;;5.05;4.15;;;;;;;;;;5054634;28;20199;-77
2021/11/22 09:38:57;;;;;;;4.95;4.45;;;;;;;;;;5058250;28;20211;-77
2021/11/22 09:41:27;;;;;;;3.63;3.33;;;;;;;;;;5065121;28;20202;-77
2021/11/22 09:43:54;;;;;;;3.97;3.38;;;;;;;;;;5074414;28;20202;-77
2021/11/22 09:46:24;;;;;;;4.40;3.60;;;;;;;;;;5067241;28;20191;-77
2021/11/22 09:48:51;;;;;;;3.85;3.20;;;;;;;;;;5058278;28;20286;-78
2021/11/22 09:51:18;;;;;;;4.72;3.70;;;;;;;;;;5065557;28;20187;-78
2021/11/22 09:53:45;;;;;;;3.60;3.30;;;;;;;;;;5062490;28;20199;-78
2021/11/22 09:56:13;;;;;;;3.60;3.30;;;;;;;;;;5068531;28;20665;-77
2021/11/22 09:58:40;;;;;;;4.00;3.58;;;;;;;;;;5059395;28;20206;-77
2021/11/22 10:01:10;;;;;;;6.82;4.00;;;;;;;;;;5062801;28;20210;-77
2021/11/22 10:03:38;;;;;;;4.25;3.95;;;;;;;;;;5059045;28;20584;-78
2021/11/22 10:06:06;;;;;;;5.57;3.90;;;;;;;;;;5063126;28;20199;-77
2021/11/22 10:08:38;;;;;;;3.58;3.28;;;;;;;;;;5058894;28;20202;-77
2021/11/22 10:11:08;;;;;;;4.25;3.85;;;;;;;;;;5061203;28;20207;-77
2021/11/22 10:13:36;;;;;;;3.50;3.20;;;;;;;;;;5053556;28;20202;-77
2021/11/22 10:16:21;;;;;;;5.72;3.90;;;;;;;;;;5066686;28;20203;-78
2021/11/22 10:18:50;;;;;;;4.10;3.70;;;;;;;;;;5062809;28;20229;-77
2021/11/22 10:21:18;;;;;;;3.97;3.65;;;;;;;;;;5062450;28;20226;-77
2021/11/22 10:23:46;;;;;;;3.28;2.97;;;;;;;;;;5060551;28;20199;-77
2021/11/22 10:26:15;;;;;;;3.72;3.42;;;;;;;;;;5065699;28;20200;-78
2021/11/22 10:28:44;;;;;;;4.13;3.05;;;;;;;;;;5064738;28;20191;-77
2021/11/22 10:31:13;;;;;;;3.58;3.28;;;;;;;;;;5052458;28;20211;-77
2021/11/22 10:33:41;;;;;;;3.88;3.35;;;;;;;;;;5052920;28;20198;-77
2021/11/22 10:36:10;;;;;;;3.75;3.45;;;;;;;;;;5061616;28;20685;-78
2021/11/22 10:38:39;;;;;;;3.50;3.13;;;;;;;;;;5064406;28;20206;-78
2021/11/22 10:41:07;;;;;;;3.50;3.20;;;;;;;;;;5061197;28;20203;-77
2021/11/22 10:43:35;;;;;;;4.05;3.10;;;;;;;;;;5054411;28;20194;-77
2021/11/22 10:46:05;;;;;;;4.40;4.00;;;;;;;;;;5061994;28;20202;-78
2021/11/22 10:48:32;;;;;;;4.10;3.70;;;;;;;;;;5060463;28;20218;-77
2021/11/22 10:51:05;;;;;;;4.53;4.05;;;;;;;;;;5060867;28;20197;-77
2021/11/22 10:53:35;;;;;;;4.82;3.42;;;;;;;;;;5055256;28;20565;-77
2021/11/22 10:56:03;;;;;;;3.80;3.40;;;;;;;;;;5060831;28;20208;-77
2021/11/22 10:58:31;;;;;;;4.30;3.90;;;;;;;;;;5052478;28;20625;-77
2021/11/22 11:00:58;;;;;;;7.20;3.65;;;;;;;;;;5052474;28;20637;-77
2021/11/22 11:03:28;;;;;;;8.93;4.32;;;;;;;;;;5055195;28;20210;-78
2021/11/22 11:05:59;;;;;;;4.75;4.35;;;;;;;;;;5064094;28;20634;-77
2021/11/22 11:08:29;;;;;;;2.97;2.67;;;;;;;;;;5055053;28;20674;-79
2021/11/22 11:11:10;;;;;;;4.00;3.60;;;;;;;;;;5071981;28;20194;-80
2021/11/22 11:13:43;;;;;;;4.95;4.45;;;;;;;;;;5060482;28;20190;-77
2021/11/22 11:16:11;;;;;;;4.60;4.20;;;;;;;;;;5072637;28;20202;-78
2021/11/22 11:18:38;;;;;;;6.10;5.50;;;;;;;;;;5063327;28;20237;-78
2021/11/22 11:21:05;;;;;;;7.43;4.35;;;;;;;;;;5068522;28;20696;-77
2021/11/22 11:23:32;;;;;;;3.75;3.45;;;;;;;;;;5065104;28;20676;-77
2021/11/22 11:25:59;;;;;;;4.53;4.13;;;;;;;;;;5059246;28;20661;-77
2021/11/22 11:28:28;;;;;;;3.50;3.20;;;;;;;;;;5052189;28;20191;-77
2021/11/22 11:30:55;;;;;;;4.05;3.47;;;;;;;;;;5062369;28;20260;-77
2021/11/22 11:33:23;;;;;;;4.93;4.00;;;;;;;;;;5052011;28;20210;-78
2021/11/22 11:35:50;;;;;;;5.93;3.88;;;;;;;;;;5059023;28;20194;-76
2021/11/22 11:38:21;;;;;;;3.78;3.40;;;;;;;;;;5071518;28;20198;-77
2021/11/22 11:41:03;;;;;;;4.30;3.90;;;;;;;;;;5059581;28;20624;-77
2021/11/22 11:43:43;;;;;;;3.38;3.00;;;;;;;;;;5055652;28;20364;-77
2021/11/22 11:46:11;;;;;;;3.10;2.90;;;;;;;;;;5060787;28;20200;-77
2021/11/22 11:48:50;;;;;;;3.53;3.22;;;;;;;;;;5057267;28;20212;-77
2021/11/22 11:51:19;;;;;;;3.47;2.95;;;;;;;;;;5059923;28;20195;-77
2021/11/22 11:54:02;;;;;;;3.50;3.20;;;;;;;;;;5063242;28;20669;-77
2021/11/22 11:56:31;;;;;;;3.83;3.25;;;;;;;;;;5059062;28;20230;-77
2021/11/22 11:59:13;;;;;;;6.82;3.95;;;;;;;;;;5064296;28;20187;-77
2021/11/22 12:01:55;;;;;;;5.18;3.10;;;;;;;;;;5051553;28;20203;-77
2021/11/22 12:04:23;;;;;;;3.70;3.40;;;;;;;;;;5058765;28;20697;-77
2021/11/22 12:06:50;;;;;;;3.95;3.65;;;;;;;;;;5060655;28;20202;-78
2021/11/22 12:09:27;;;;;;;4.18;3.25;;;;;;;;;;5062198;28;20196;-77
2021/11/22 12:11:55;;;;;;;3.63;3.33;;;;;;;;;;5055041;28;20600;-78
2021/11/22 12:14:37;;;;;;;3.17;2.88;;;;;;;;;;5059226;28;20198;-77
2021/11/22 12:17:05;;;;;;;3.15;2.85;;;;;;;;;;5059221;28;20654;-77
2021/11/22 12:19:36;;;;;;;3.30;3.00;;;;;;;;;;5063525;28;20259;-77
2021/11/22 12:22:10;;;;;;;2.75;2.55;;;;;;;;;;5070987;28;20573;-77
2021/11/22 12:24:39;;;;;;;3.90;3.58;;;;;;;;;;5051621;28;20205;-77
2021/11/22 12:27:21;;;;;;;3.25;2.95;;;;;;;;;;5065011;28;20197;-77
2021/11/22 12:29:48;;;;;;;3.28;3.00;;;;;;;;;;5051180;28;20206;-77
2021/11/22 12:32:26;;;;;;;3.20;2.90;;;;;;;;;;5062028;28;20194;-77
2021/11/22 12:34:57;;;;;;;3.55;2.70;;;;;;;;;;5052484;28;20631;-77
2021/11/22 12:37:24;;;;;;;4.65;2.78;;;;;;;;;;5055635;28;20681;-78
2021/11/22 12:39:52;;;;;;;4.30;2.83;;;;;;;;;;5060234;28;20275;-77
2021/11/22 12:42:21;;;;;;;2.85;2.40;;;;;;;;;;5062294;28;20201;-77
2021/11/22 12:44:59;;;;;;;5.93;2.95;;;;;;;;;;5074193;28;20198;-77
2021/11/22 12:47:28;;;;;;;3.25;2.85;;;;;;;;;;5059151;28;20202;-77
2021/11/22 12:50:07;;;;;;;5.25;2.88;;;;;;;;;;5062813;28;20192;-78
2021/11/22 12:52:36;;;;;;;2.72;2.53;;;;;;;;;;5060021;28;20202;-77
2021/11/22 12:55:05;;;;;;;3.38;2.85;;;;;;;;;;5059564;28;20198;-78
2021/11/22 12:57:34;;;;;;;3.22;2.42;;;;;;;;;;5061465;28;20203;-78
2021/11/22 13:00:09;;;;;;;3.05;2.85;;;;;;;;;;5073935;28;20346;-77
2021/11/22 13:02:41;;;;;;;4.70;2.40;;;;;;;;;;5069735;28;20202;-77
2021/11/22 13:05:08;;;;;;;3.95;3.53;;;;;;;;;;5063143;28;20219;-77
2021/11/22 13:07:49;;;;;;;10.30;2.60;;;;;;;;;;5060490;28;20566;-77
2021/11/22 13:10:35;;;;;;;2.95;2.65;;;;;;;;;;5058566;28;20198;-77
2021/11/22 13:13:10;;;;;;;3.67;3.38;;;;;;;;;;5063329;28;20637;-78
2021/11/22 13:15:53;;;;;;;3.45;2.78;;;;;;;;;;5054870;28;20194;-77
2021/11/22 13:18:23;;;;;;;4.00;2.50;;;;;;;;;;5062414;28;20658;-77
2021/11/22 13:20:50;;;;;;;3.00;2.50;;;;;;;;;;5065888;28;20221;-77
2021/11/22 13:23:18;;;;;;;2.92;2.63;;;;;;;;;;5058235;28;20198;-77
2021/11/22 13:25:46;;;;;;;3.55;2.70;;;;;;;;;;5054200;28;20203;-78
2021/11/22 13:28:15;;;;;;;2.42;2.17;;;;;;;;;;5055627;28;20643;-77
2021/11/22 13:30:42;;;;;;;2.88;2.60;;;;;;;;;;5054015;28;20195;-77
2021/11/22 13:33:10;;;;;;;2.53;2.33;;;;;;;;;;5056886;28;20725;-77
2021/11/22 13:35:38;;;;;;;2.78;2.15;;;;;;;;;;5067863;28;20201;-77
2021/11/22 13:38:09;;;;;;;2.30;2.10;;;;;;;;;;5072925;28;20186;-77
2021/11/22 13:40:36;;;;;;;3.30;2.10;;;;;;;;;;5067810;28;20749;-77
2021/11/22 13:43:05;;;;;;;4.55;2.63;;;;;;;;;;5060072;28;20198;-77
2021/11/22 13:45:32;;;;;;;2.78;2.03;;;;;;;;;;5053847;28;20199;-77
2021/11/22 13:47:59;;;;;;;2.08;1.90;;;;;;;;;;5053780;28;20195;-77
2021/11/22 13:50:27;;;;;;;2.28;2.03;;;;;;;;;;5060886;28;20202;-77
2021/11/22 13:52:56;;;;;;;2.92;2.38;;;;;;;;;;5058335;28;20199;-78
2021/11/22 13:55:23;;;;;;;4.72;2.60;;;;;;;;;;5069573;28;20194;-77
2021/11/22 13:57:50;;;;;;;3.95;2.30;;;;;;;;;;5059820;28;20658;-77
2021/11/22 14:00:18;;;;;;;4.10;2.40;;;;;;;;;;5060624;28;20704;-77
2021/11/22 14:02:45;;;;;;;2.17;1.98;;;;;;;;;;5061324;28;20237;-78
2021/11/22 14:05:13;;;;;;;2.58;2.10;;;;;;;;;;5063650;28;20703;-77
2021/11/22 14:07:44;;;;;;;6.57;2.55;;;;;;;;;;5057085;28;20277;-78
2021/11/22 14:10:12;;;;;;;2.15;1.95;;;;;;;;;;5067757;28;20198;-77
2021/11/22 14:12:40;;;;;;;3.05;2.10;;;;;;;;;;5066493;28;20657;-77
2021/11/22 14:15:20;;;;;;;1.90;1.80;;;;;;;;;;5072542;28;20195;-77
2021/11/22 14:17:49;;;;;;;4.30;1.80;;;;;;;;;;5072302;28;20709;-77
2021/11/22 14:20:17;;;;;;;6.10;2.80;;;;;;;;;;5073036;28;20321;-77
2021/11/22 14:22:45;;;;;;;2.63;2.20;;;;;;;;;;5058572;28;20198;-77
2021/11/22 14:25:21;;;;;;;3.03;2.30;;;;;;;;;;5053022;28;20198;-77
2021/11/22 14:27:48;;;;;;;5.55;2.38;;;;;;;;;;5063921;28;20220;-77
2021/11/22 14:30:16;;;;;;;2.00;1.80;;;;;;;;;;5068353;28;20668;-78
2021/11/22 14:32:44;;;;;;;3.92;2.10;;;;;;;;;;5053591;28;20202;-77
2021/11/22 14:35:13;;;;;;;2.33;1.70;;;;;;;;;;5055121;28;20657;-77
2021/11/22 14:37:40;;;;;;;2.35;2.15;;;;;;;;;;5058266;28;20565;-77
2021/11/22 14:40:08;;;;;;;2.20;1.45;;;;;;;;;;5054489;28;20194;-77
2021/11/22 14:42:37;;;;;;;1.60;1.45;;;;;;;;;;5060403;28;20426;-77
2021/11/22 14:45:04;;;;;;;1.92;1.60;;;;;;;;;;5066750;28;20574;-77
2021/11/22 14:47:32;;;;;;;2.95;2.35;;;;;;;;;;5066553;28;20302;-77
2021/11/22 14:50:14;;;;;;;1.70;1.55;;;;;;;;;;5057070;28;20609;-77